createdAt,value
2022-08-03T00:02:30.748Z,100101.09
2022-08-03T00:05:00.815Z,100108.81
2022-08-03T00:07:30.959Z,100106.56
2022-08-03T00:10:01.673Z,100105.50
2022-08-03T00:12:34.465Z,100111.75
2022-08-03T00:15:09.499Z,100105.50
2022-08-03T00:17:51.988Z,100109.34
2022-08-03T00:20:23.695Z,100111.72
2022-08-03T00:22:55.253Z,100110.63
2022-08-03T00:25:22.708Z,100108.97
2022-08-03T00:27:54.282Z,100118.09
2022-08-03T00:30:23.668Z,100113.28
2022-08-03T00:32:57.192Z,100117.63
2022-08-03T00:35:36.694Z,100116.75
2022-08-03T00:38:04.890Z,100111.72
2022-08-03T00:40:35.613Z,100113.34
2022-08-03T00:43:08.761Z,100112.91
2022-08-03T00:45:38.702Z,100115.00
2022-08-03T00:48:29.399Z,100114.88
2022-08-03T00:50:58.685Z,100112.56
2022-08-03T00:53:29.484Z,100110.00
2022-08-03T00:56:05.159Z,100118.75
2022-08-03T00:58:32.801Z,100122.94
2022-08-03T01:01:06.110Z,100114.88
2022-08-03T01:03:36.717Z,100122.03
2022-08-03T01:06:12.584Z,100128.75
2022-08-03T01:08:48.821Z,100119.97
2022-08-03T01:11:29.167Z,100127.25
2022-08-03T01:14:19.070Z,100123.28
2022-08-03T01:17:02.045Z,100124.84
2022-08-03T01:19:45.618Z,100126.38
2022-08-03T01:22:13.117Z,100123.03
2022-08-03T01:24:56.054Z,100123.22
2022-08-03T01:27:31.394Z,100118.72
2022-08-03T01:30:12.133Z,100124.31
2022-08-03T01:33:00.705Z,100121.19
2022-08-03T01:35:54.326Z,100116.78
2022-08-03T01:38:25.847Z,100119.38
2022-08-03T01:40:56.373Z,100124.31
2022-08-03T01:44:26.863Z,100116.91
2022-08-03T01:46:23.581Z,100113.63
2022-08-03T01:48:58.576Z,100115.44
2022-08-03T01:52:02.784Z,100114.28
2022-08-03T01:54:24.995Z,100112.00
2022-08-03T01:56:59.453Z,100114.31
2022-08-03T01:59:28.924Z,100112.94
2022-08-03T02:02:15.282Z,100123.59
2022-08-03T02:04:50.829Z,100128.75
2022-08-03T02:07:24.750Z,100124.50
2022-08-03T02:09:56.093Z,100125.56
2022-08-03T02:12:29.258Z,100130.59
2022-08-03T02:14:57.100Z,100127.38
2022-08-03T02:17:39.724Z,100124.59
2022-08-03T02:20:09.380Z,100129.81
2022-08-03T02:22:42.926Z,100127.50
2022-08-03T02:25:14.341Z,100126.59
2022-08-03T02:28:06.460Z,100127.78
2022-08-03T02:30:35.320Z,100132.63
2022-08-03T02:33:02.987Z,100129.25
2022-08-03T02:35:35.049Z,100130.84
2022-08-03T02:38:07.774Z,100133.91
2022-08-03T02:40:36.408Z,100138.09
2022-08-03T02:43:16.538Z,100133.41
2022-08-03T02:45:55.704Z,100130.16
2022-08-03T02:48:28.621Z,100134.44
2022-08-03T02:51:02.920Z,100133.97
2022-08-03T02:53:33.681Z,100136.72
2022-08-03T02:56:05.598Z,100137.16
2022-08-03T02:58:36.627Z,100139.25
2022-08-03T03:01:04.005Z,100144.16
2022-08-03T03:03:40.032Z,100146.66
2022-08-03T03:06:19.751Z,100146.06
2022-08-03T03:08:50.315Z,100155.50
2022-08-03T03:11:25.133Z,100153.88
2022-08-03T03:13:53.338Z,100155.34
2022-08-03T03:16:26.207Z,100163.75
2022-08-03T03:18:54.405Z,100161.69
2022-08-03T03:21:26.828Z,100163.19
2022-08-03T03:24:00.801Z,100171.41
2022-08-03T03:26:32.152Z,100173.03
2022-08-03T03:29:02.518Z,100175.19
2022-08-03T03:31:37.020Z,100170.13
2022-08-03T03:34:07.624Z,100174.19
2022-08-03T03:36:37.881Z,100181.00
2022-08-03T03:39:15.451Z,100180.00
2022-08-03T03:41:46.121Z,100185.84
2022-08-03T03:44:16.278Z,100183.72
2022-08-03T03:46:44.296Z,100190.59
2022-08-03T03:49:12.194Z,100182.34
2022-08-03T03:51:40.116Z,100191.19
2022-08-03T03:54:11.275Z,100193.28
2022-08-03T03:56:39.148Z,100197.91
2022-08-03T03:59:10.700Z,100202.84
2022-08-03T04:01:41.904Z,100197.75
2022-08-03T04:04:09.669Z,100196.25
2022-08-03T04:06:40.517Z,100194.63
2022-08-03T04:09:11.503Z,100199.75
2022-08-03T04:11:53.430Z,100200.66
2022-08-03T04:14:29.751Z,100200.38
2022-08-03T04:17:03.526Z,100206.13
2022-08-03T04:19:51.058Z,100197.31
2022-08-03T04:22:25.342Z,100202.69
2022-08-03T04:24:59.951Z,100211.00
2022-08-03T04:27:36.766Z,100214.78
2022-08-03T04:30:08.213Z,100207.00
2022-08-03T04:32:45.457Z,100223.16
2022-08-03T04:35:15.831Z,100221.88
2022-08-03T04:37:45.049Z,100228.81
2022-08-03T04:40:20.469Z,100232.03
2022-08-03T04:42:50.384Z,100243.63
2022-08-03T04:45:21.405Z,100240.63
2022-08-03T04:47:55.597Z,100238.44
2022-08-03T04:50:27.233Z,100240.09
2022-08-03T04:53:00.789Z,100250.31
2022-08-03T04:55:33.674Z,100254.44
2022-08-03T04:58:04.883Z,100249.94
2022-08-03T05:00:36.293Z,100251.84
2022-08-03T05:03:19.602Z,100248.13
2022-08-03T05:06:01.620Z,100252.22
2022-08-03T05:08:33.344Z,100256.03
2022-08-03T05:11:08.908Z,100258.44
2022-08-03T05:13:43.896Z,100253.00
2022-08-03T05:16:15.075Z,100259.00
2022-08-03T05:18:45.616Z,100268.31
2022-08-03T05:21:24.897Z,100273.78
2022-08-03T05:24:14.661Z,100266.94
2022-08-03T05:26:47.780Z,100275.94
2022-08-03T05:29:17.922Z,100273.47
2022-08-03T05:31:49.368Z,100271.69
2022-08-03T05:34:19.496Z,100281.13
2022-08-03T05:36:52.812Z,100272.59
2022-08-03T05:39:25.762Z,100279.19
2022-08-03T05:41:53.321Z,100280.31
2022-08-03T05:44:25.413Z,100286.22
2022-08-03T05:46:55.277Z,100288.97
2022-08-03T05:49:26.103Z,100293.19
2022-08-03T05:52:12.529Z,100287.06
2022-08-03T05:54:55.976Z,100291.38
2022-08-03T05:57:28.230Z,100294.84
2022-08-03T05:59:58.629Z,100302.28
2022-08-03T06:02:32.485Z,100299.25
2022-08-03T06:05:09.398Z,100303.59
2022-08-03T06:07:43.943Z,100306.97
2022-08-03T06:10:35.817Z,100294.53
2022-08-03T06:13:15.662Z,100303.94
2022-08-03T06:15:49.383Z,100299.97
2022-08-03T06:18:16.706Z,100302.25
2022-08-03T06:20:50.286Z,100301.56
2022-08-03T06:23:20.254Z,100293.22
2022-08-03T06:25:47.575Z,100299.53
2022-08-03T06:28:52.169Z,100294.81
2022-08-03T06:31:16.206Z,100299.19
2022-08-03T06:34:34.447Z,100291.78
2022-08-03T06:36:41.505Z,100301.81
2022-08-03T06:39:12.812Z,100308.03
2022-08-03T06:41:44.765Z,100305.41
2022-08-03T06:44:18.341Z,100305.03
2022-08-03T06:46:51.070Z,100297.56
2022-08-03T06:49:19.608Z,100300.44
2022-08-03T06:52:03.823Z,100297.69
2022-08-03T06:54:36.553Z,100300.97
2022-08-03T06:57:07.129Z,100302.97
2022-08-03T07:00:09.451Z,100302.03
2022-08-03T07:02:30.009Z,100300.72
2022-08-03T07:04:58.384Z,100307.03
2022-08-03T07:07:28.542Z,100305.31
2022-08-03T07:09:58.341Z,100308.25
2022-08-03T07:12:32.023Z,100302.38
2022-08-03T07:15:03.763Z,100306.06
2022-08-03T07:17:31.980Z,100310.38
2022-08-03T07:20:07.280Z,100308.81
2022-08-03T07:22:35.140Z,100300.16
2022-08-03T07:25:05.733Z,100302.09
2022-08-03T07:27:36.296Z,100304.09
2022-08-03T07:30:06.186Z,100298.22
2022-08-03T07:32:50.700Z,100301.38
2022-08-03T07:35:25.191Z,100302.53
2022-08-03T07:37:54.298Z,100296.63
2022-08-03T07:40:30.659Z,100301.00
2022-08-03T07:42:59.872Z,100295.06
2022-08-03T07:45:34.202Z,100296.22
2022-08-03T07:48:12.371Z,100295.38
2022-08-03T07:50:40.397Z,100288.34
2022-08-03T07:53:07.752Z,100287.00
2022-08-03T07:55:35.106Z,100292.97
2022-08-03T07:58:05.456Z,100290.47
2022-08-03T08:00:32.741Z,100296.72
2022-08-03T08:03:05.035Z,100299.06
2022-08-03T08:05:40.752Z,100288.59
2022-08-03T08:08:08.157Z,100295.19
2022-08-03T08:10:36.099Z,100295.94
2022-08-03T08:13:09.596Z,100296.41
2022-08-03T08:15:36.908Z,100298.47
2022-08-03T08:18:17.093Z,100300.75
2022-08-03T08:20:47.298Z,100287.19
2022-08-03T08:23:40.867Z,100288.69
2022-08-03T08:26:08.719Z,100279.06
2022-08-03T08:28:38.708Z,100288.44
2022-08-03T08:31:09.064Z,100291.84
2022-08-03T08:36:33.144Z,100273.78
2022-08-03T08:39:00.224Z,100275.59
2022-08-03T08:41:33.325Z,100279.56
2022-08-03T08:44:03.758Z,100278.13
2022-08-03T08:46:33.998Z,100277.97
2022-08-03T08:49:05.726Z,100277.19
2022-08-03T08:51:54.669Z,100282.41
2022-08-03T08:54:27.964Z,100276.50
2022-08-03T08:57:12.411Z,100269.63
2022-08-03T08:59:57.392Z,100271.16
2022-08-03T09:02:25.099Z,100276.34
2022-08-03T09:04:57.278Z,100282.00
2022-08-03T09:07:24.566Z,100273.44
2022-08-03T09:10:11.255Z,100270.53
2022-08-03T09:12:43.042Z,100260.69
2022-08-03T09:15:22.880Z,100259.75
2022-08-03T09:17:51.414Z,100259.75
2022-08-03T09:20:20.162Z,100259.28
2022-08-03T09:22:58.277Z,100252.59
2022-08-03T09:25:29.987Z,100259.00
2022-08-03T09:28:53.876Z,100256.53
2022-08-03T09:31:13.265Z,100246.41
2022-08-03T09:33:47.940Z,100242.88
2022-08-03T09:36:53.859Z,100254.44
2022-08-03T09:39:40.665Z,100238.66
2022-08-03T09:42:14.803Z,100242.25
2022-08-03T09:44:43.765Z,100244.41
2022-08-03T09:47:14.925Z,100244.47
2022-08-03T09:49:43.059Z,100235.31
2022-08-03T09:52:38.215Z,100241.19
2022-08-03T09:55:01.810Z,100229.03
2022-08-03T09:57:29.339Z,100231.78
2022-08-03T10:00:08.287Z,100229.63
2022-08-03T10:02:42.347Z,100228.78
2022-08-03T10:05:19.567Z,100222.63
2022-08-03T10:07:49.994Z,100219.91
2022-08-03T10:10:31.872Z,100220.50
2022-08-03T10:13:02.472Z,100220.25
2022-08-03T10:16:21.815Z,100216.16
2022-08-03T10:18:29.453Z,100216.69
2022-08-03T10:21:03.888Z,100215.06
2022-08-03T10:23:35.241Z,100201.03
2022-08-03T10:26:06.061Z,100211.19
2022-08-03T10:28:44.715Z,100209.13
2022-08-03T10:31:13.994Z,100202.66
2022-08-03T10:33:51.643Z,100204.56
2022-08-03T10:36:24.475Z,100204.78
2022-08-03T10:38:52.771Z,100199.41
2022-08-03T10:41:21.776Z,100197.63
2022-08-03T10:43:52.498Z,100192.16
2022-08-03T10:46:21.267Z,100198.81
2022-08-03T10:48:52.192Z,100194.50
2022-08-03T10:51:25.888Z,100201.69
2022-08-03T10:53:55.088Z,100195.31
2022-08-03T10:56:50.346Z,100195.31
2022-08-03T10:59:37.041Z,100181.19
2022-08-03T11:02:04.556Z,100185.03
2022-08-03T11:04:34.747Z,100177.97
2022-08-03T11:07:17.492Z,100175.16
2022-08-03T11:09:46.039Z,100178.59
2022-08-03T11:12:30.713Z,100171.22
2022-08-03T11:15:08.620Z,100172.28
2022-08-03T11:17:46.635Z,100173.47
2022-08-03T11:20:42.359Z,100170.88
2022-08-03T11:23:10.445Z,100165.94
2022-08-03T11:25:56.354Z,100158.75
2022-08-03T11:28:30.663Z,100146.38
2022-08-03T11:31:39.218Z,100148.56
2022-08-03T11:34:12.417Z,100144.75
2022-08-03T11:36:58.659Z,100142.59
2022-08-03T11:39:58.655Z,100140.25
2022-08-03T11:42:37.685Z,100134.88
2022-08-03T11:45:07.475Z,100135.00
2022-08-03T11:47:36.989Z,100129.16
2022-08-03T11:50:24.142Z,100133.38
2022-08-03T11:52:55.103Z,100125.84
2022-08-03T11:55:30.505Z,100122.25
2022-08-03T11:59:12.827Z,100124.41
2022-08-03T12:00:48.889Z,100119.69
2022-08-03T12:03:17.229Z,100112.56
2022-08-03T12:05:52.786Z,100114.22
2022-08-03T12:08:32.947Z,100109.56
2022-08-03T12:11:01.557Z,100105.66
2022-08-03T12:14:45.266Z,100106.38
2022-08-03T12:16:30.170Z,100101.13
2022-08-03T12:18:58.883Z,100096.25
2022-08-03T12:21:27.556Z,100100.19
2022-08-03T12:23:59.114Z,100087.97
2022-08-03T12:26:27.162Z,100085.59
2022-08-03T12:28:54.452Z,100079.94
2022-08-03T12:31:21.842Z,100073.34
2022-08-03T12:33:55.336Z,100085.69
2022-08-03T12:36:22.754Z,100081.97
2022-08-03T12:38:57.101Z,100082.22
2022-08-03T12:41:31.517Z,100079.03
2022-08-03T12:43:58.843Z,100089.84
2022-08-03T12:46:30.488Z,100078.09
2022-08-03T12:48:58.836Z,100077.03
2022-08-03T12:51:27.114Z,100078.97
2022-08-03T12:53:54.921Z,100071.16
2022-08-03T12:56:25.072Z,100068.88
2022-08-03T12:58:52.483Z,100071.53
2022-08-03T13:01:19.955Z,100068.91
2022-08-03T13:03:52.961Z,100067.47
2022-08-03T13:06:22.124Z,100059.97
2022-08-03T13:08:49.581Z,100061.78
2022-08-03T13:11:20.904Z,100057.38
2022-08-03T13:13:48.357Z,100051.69
2022-08-03T13:16:19.125Z,100064.91
2022-08-03T13:18:46.690Z,100052.28
2022-08-03T13:21:18.884Z,100058.06
2022-08-03T13:23:46.427Z,100054.31
2022-08-03T13:26:13.643Z,100044.69
2022-08-03T13:28:41.003Z,100057.06
2022-08-03T13:31:08.273Z,100046.91
2022-08-03T13:33:35.629Z,100044.28
2022-08-03T13:36:02.921Z,100051.81
2022-08-03T13:38:30.191Z,100049.09
2022-08-03T13:40:58.639Z,100044.84
2022-08-03T13:43:25.834Z,100044.84
2022-08-03T13:45:57.753Z,100044.88
2022-08-03T13:48:36.899Z,100043.31
2022-08-03T13:51:11.817Z,100036.69
2022-08-03T13:53:50.948Z,100036.75
2022-08-03T13:56:18.265Z,100034.44
2022-08-03T13:58:45.810Z,100035.59
2022-08-03T14:01:13.128Z,100026.91
2022-08-03T14:03:41.344Z,100037.00
2022-08-03T14:06:08.619Z,100032.53
2022-08-03T14:08:35.995Z,100033.25
2022-08-03T14:11:03.634Z,100030.16
2022-08-03T14:13:30.910Z,100026.34
2022-08-03T14:15:58.307Z,100023.44
2022-08-03T14:18:29.253Z,100029.69
2022-08-03T14:21:05.446Z,100019.34
2022-08-03T14:23:36.899Z,100021.25
2022-08-03T14:26:07.601Z,100015.47
2022-08-03T14:28:35.412Z,100019.50
2022-08-03T14:31:03.606Z,100021.53
2022-08-03T14:33:30.919Z,100020.78
2022-08-03T14:35:58.350Z,100015.25
2022-08-03T14:38:25.560Z,100019.41
2022-08-03T14:40:52.812Z,100014.53
2022-08-03T14:43:20.064Z,100009.78
2022-08-03T14:45:50.919Z,100010.13
2022-08-03T14:50:32.846Z,100004.84
2022-08-03T14:51:05.995Z,100004.28
2022-08-03T14:53:34.135Z,100001.72
2022-08-03T14:56:04.141Z,100001.81
2022-08-03T14:58:33.966Z,99995.25
2022-08-03T15:01:01.213Z,100001.25
2022-08-03T15:03:28.612Z,99992.53
2022-08-03T15:05:56.337Z,99990.56
2022-08-03T15:08:24.745Z,99995.88
2022-08-03T15:10:52.434Z,99998.75
2022-08-03T15:13:20.066Z,99990.97
2022-08-03T15:15:47.558Z,99992.94
2022-08-03T15:18:19.316Z,99989.41
2022-08-03T15:20:47.341Z,100000.09
2022-08-03T15:23:15.561Z,99993.81
2022-08-03T15:26:31.864Z,99991.16
2022-08-03T15:28:30.911Z,99992.81
2022-08-03T15:30:58.257Z,99996.53
2022-08-03T15:33:25.963Z,99993.94
2022-08-03T15:35:53.495Z,99992.03
2022-08-03T15:38:21.305Z,99984.97
2022-08-03T15:40:48.669Z,99987.00
2022-08-03T15:43:15.903Z,99987.78
2022-08-03T15:45:43.223Z,99986.13
2022-08-03T15:48:12.141Z,99987.28
2022-08-03T15:50:40.052Z,99982.19
2022-08-03T15:53:07.384Z,99978.31
2022-08-03T15:55:34.711Z,99979.88
2022-08-03T15:59:09.330Z,99973.13
2022-08-03T16:00:49.232Z,99976.41
2022-08-03T16:03:16.617Z,99981.16
2022-08-03T16:05:43.837Z,99977.56
2022-08-03T16:08:17.383Z,99976.03
2022-08-03T16:10:46.614Z,99976.88
2022-08-03T16:13:15.793Z,99973.00
2022-08-03T16:15:43.042Z,99980.50
2022-08-03T16:18:10.283Z,99980.88
2022-08-03T16:20:37.528Z,99982.50
2022-08-03T16:23:11.610Z,99978.66
2022-08-03T16:25:40.710Z,99980.75
2022-08-03T16:28:13.950Z,99983.13
2022-08-03T16:30:44.077Z,99982.44
2022-08-03T16:33:16.589Z,99981.66
2022-08-03T16:35:45.989Z,99981.72
2022-08-03T16:38:18.330Z,99986.09
2022-08-03T16:40:47.912Z,99982.59
2022-08-03T16:43:18.789Z,99979.91
2022-08-03T16:45:47.353Z,99986.28
2022-08-03T16:48:15.277Z,99985.94
2022-08-03T16:50:43.671Z,99985.25
2022-08-03T16:53:16.737Z,99987.28
2022-08-03T16:55:53.378Z,99982.16
2022-08-03T16:58:41.615Z,99987.31
2022-08-03T17:01:21.521Z,99994.09
2022-08-03T17:04:02.223Z,99996.88
2022-08-03T17:06:34.213Z,99999.25
2022-08-03T17:09:03.969Z,99993.78
2022-08-03T17:11:46.408Z,99999.31
2022-08-03T17:14:21.803Z,100000.53
2022-08-03T17:16:54.249Z,100002.88
2022-08-03T17:19:23.854Z,100002.88
2022-08-03T17:22:11.654Z,100002.91
2022-08-03T17:24:42.268Z,100012.34
2022-08-03T17:28:42.291Z,99993.91
2022-08-03T17:30:08.837Z,100008.47
2022-08-03T17:32:42.236Z,100010.84
2022-08-03T17:35:10.616Z,100015.94
2022-08-03T17:37:58.446Z,100010.06
2022-08-03T17:40:27.156Z,100009.69
2022-08-03T17:42:59.237Z,100017.16
2022-08-03T17:45:42.290Z,100015.59
2022-08-03T17:48:17.805Z,100015.22
2022-08-03T17:50:55.524Z,100017.97
2022-08-03T17:53:31.905Z,100019.53
2022-08-03T17:56:44.771Z,100020.34
2022-08-03T17:58:58.747Z,100019.50
2022-08-03T18:02:02.177Z,100023.47
2022-08-03T18:04:29.605Z,100019.94
2022-08-03T18:06:58.679Z,100030.94
2022-08-03T18:10:04.899Z,100026.59
2022-08-03T18:12:26.993Z,100034.47
2022-08-03T18:15:01.239Z,100028.94
2022-08-03T18:17:55.411Z,100039.19
2022-08-03T18:20:32.725Z,100042.28
2022-08-03T18:23:06.176Z,100047.78
2022-08-03T18:25:42.684Z,100052.91
2022-08-03T18:28:18.850Z,100047.00
2022-08-03T18:30:54.587Z,100050.53
2022-08-03T18:34:16.177Z,100050.16
2022-08-03T18:36:18.111Z,100059.56
2022-08-03T18:38:49.745Z,100057.22
2022-08-03T18:41:31.904Z,100058.41
2022-08-03T18:44:08.719Z,100059.97
2022-08-03T18:46:50.344Z,100066.66
2022-08-03T18:49:36.603Z,100055.22
2022-08-03T18:52:17.545Z,100060.75
2022-08-03T18:55:20.831Z,100057.22
2022-08-03T18:57:55.886Z,100070.16
2022-08-03T19:00:42.580Z,100062.69
2022-08-03T19:03:20.327Z,100066.59
2022-08-03T19:06:09.474Z,100071.31
2022-08-03T19:08:46.005Z,100069.34
2022-08-03T19:11:17.372Z,100073.25
2022-08-03T19:13:50.196Z,100082.25
2022-08-03T19:16:21.387Z,100080.31
2022-08-03T19:18:49.277Z,100080.69
2022-08-03T19:21:16.528Z,100081.47
2022-08-03T19:23:45.355Z,100082.25
2022-08-03T19:26:30.326Z,100081.50
2022-08-03T19:29:02.113Z,100084.22
2022-08-03T19:31:31.061Z,100085.41
2022-08-03T19:34:02.465Z,100079.91
2022-08-03T19:36:30.429Z,100084.22
2022-08-03T19:39:09.132Z,100089.31
2022-08-03T19:41:44.569Z,100088.53
2022-08-03T19:44:32.840Z,100082.22
2022-08-03T19:47:16.763Z,100084.59
2022-08-03T19:50:04.683Z,100085.38
2022-08-03T19:52:39.680Z,100090.47
2022-08-03T19:55:12.136Z,100079.91
2022-08-03T19:57:42.972Z,100088.53
2022-08-03T20:00:13.913Z,100093.25
2022-08-03T20:02:41.998Z,100084.22
2022-08-03T20:05:15.324Z,100086.19
2022-08-03T20:07:48.859Z,100096.81
2022-08-03T20:10:17.913Z,100094.00
2022-08-03T20:12:49.152Z,100097.94
2022-08-03T20:15:31.315Z,100095.97
2022-08-03T20:18:02.085Z,100095.16
2022-08-03T20:20:33.374Z,100101.03
2022-08-03T20:23:06.707Z,100101.03
2022-08-03T20:25:48.700Z,100094.69
2022-08-03T20:28:35.194Z,100097.03
2022-08-03T20:34:09.239Z,100108.00
2022-08-03T20:36:40.428Z,100112.72
2022-08-03T20:39:11.197Z,100109.63
2022-08-03T20:41:40.403Z,100108.06
2022-08-03T20:44:07.692Z,100115.53
2022-08-03T20:46:53.315Z,100115.53
2022-08-03T20:49:31.453Z,100110.44
2022-08-03T20:52:18.066Z,100103.75
2022-08-03T20:54:50.783Z,100105.28
2022-08-03T20:57:24.785Z,100108.81
2022-08-03T20:59:58.649Z,100105.25
2022-08-03T21:02:29.603Z,100098.59
2022-08-03T21:05:08.644Z,100097.78
2022-08-03T21:08:06.470Z,100100.13
2022-08-03T21:13:07.090Z,100103.28
2022-08-03T21:13:08.184Z,100097.78
2022-08-03T21:13:30.066Z,100110.69
2022-08-03T21:16:06.493Z,100103.22
2022-08-03T21:18:49.174Z,100106.69
2022-08-03T21:21:18.166Z,100106.25
2022-08-03T21:23:50.270Z,100103.09
2022-08-03T21:26:18.738Z,100105.84
2022-08-03T21:28:50.357Z,100102.31
2022-08-03T21:31:27.082Z,100107.00
2022-08-03T21:33:56.081Z,100105.00
2022-08-03T21:36:27.264Z,100109.28
2022-08-03T21:38:56.513Z,100109.31
2022-08-03T21:41:30.737Z,100106.94
2022-08-03T21:44:05.427Z,100105.38
2022-08-03T21:46:37.664Z,100114.34
2022-08-03T21:50:04.877Z,100114.75
2022-08-03T21:51:59.982Z,100104.63
2022-08-03T21:54:33.350Z,100110.47
2022-08-03T21:57:03.160Z,100117.13
2022-08-03T21:59:32.115Z,100115.97
2022-08-03T22:01:59.749Z,100119.56
2022-08-03T22:04:50.302Z,100124.63
2022-08-03T22:07:15.031Z,100121.03
2022-08-03T22:09:51.177Z,100125.00
2022-08-03T22:12:29.778Z,100123.81
2022-08-03T22:15:04.408Z,100119.50
2022-08-03T22:17:55.709Z,100130.47
2022-08-03T22:20:37.790Z,100124.94
2022-08-03T22:23:06.553Z,100129.97
2022-08-03T22:25:35.586Z,100121.75
2022-08-03T22:28:21.174Z,100127.56
2022-08-03T22:30:51.800Z,100128.84
2022-08-03T22:33:25.589Z,100131.94
2022-08-03T22:35:57.100Z,100137.84
2022-08-03T22:38:31.119Z,100130.72
2022-08-03T22:41:01.616Z,100136.69
2022-08-03T22:43:32.593Z,100134.25
2022-08-03T22:46:07.357Z,100143.69
2022-08-03T22:48:40.957Z,100136.69
2022-08-03T22:51:09.163Z,100133.47
2022-08-03T22:53:36.794Z,100138.59
2022-08-03T22:56:08.822Z,100140.16
2022-08-03T22:58:55.877Z,100140.84
2022-08-03T23:01:32.624Z,100144.13
2022-08-03T23:04:04.764Z,100149.75
2022-08-03T23:06:40.483Z,100155.34
2022-08-03T23:09:18.669Z,100142.34
2022-08-03T23:11:56.189Z,100149.69
2022-08-03T23:14:39.456Z,100149.63
2022-08-03T23:17:17.635Z,100142.59
2022-08-03T23:19:56.853Z,100148.09
2022-08-03T23:22:32.719Z,100155.91
2022-08-03T23:25:13.208Z,100151.09
2022-08-03T23:27:45.594Z,100149.13
2022-08-03T23:30:22.348Z,100152.56
2022-08-03T23:33:05.795Z,100153.38
2022-08-03T23:36:18.668Z,100156.53
2022-08-03T23:38:30.181Z,100154.22
2022-08-03T23:41:08.105Z,100158.09
2022-08-03T23:43:53.825Z,100147.81
2022-08-03T23:46:27.242Z,100152.63
2022-08-03T23:49:04.884Z,100162.47
2022-08-03T23:51:47.550Z,100167.56
2022-08-03T23:54:32.440Z,100170.22
2022-08-03T23:57:35.845Z,100169.53
